Time;durP1;ratioP1;P1;durP2;ratioP2;P2;SDS_P1;SDS_P2;PMS_P1;PMS_P2;Temp;Humidity;BMP_temperature;BMP_pressure;BME280_temperature;BME280_humidity;BME280_pressure;Samples;Min_cycle;Max_cycle;Signal;HPM_P1;HPM_P2
2023/03/15 00:01:59;;;;;;;6.70;2.20;;;5.60;99.90;;;;;;5049635;28;20420;-76
2023/03/15 00:04:26;;;;;;;6.33;1.73;;;5.60;99.90;;;;;;5045963;28;20443;-77
2023/03/15 00:06:52;;;;;;;6.97;2.57;;;5.80;99.90;;;;;;5042900;28;20428;-76
2023/03/15 00:09:18;;;;;;;7.60;2.10;;;5.60;99.90;;;;;;5048439;28;20416;-77
2023/03/15 00:11:44;;;;;;;9.20;2.10;;;5.60;99.90;;;;;;5049441;28;20288;-77
2023/03/15 00:14:09;;;;;;;3.17;1.90;;;5.70;99.90;;;;;;5049901;28;21458;-77
2023/03/15 00:16:36;;;;;;;7.37;2.17;;;5.70;99.90;;;;;;5050776;28;20213;-76
2023/03/15 00:19:02;;;;;;;9.50;2.80;;;5.70;99.90;;;;;;5050574;28;20187;-77
2023/03/15 00:21:28;;;;;;;6.43;2.57;;;5.40;99.90;;;;;;5050096;28;20409;-77
2023/03/15 00:23:55;;;;;;;2.83;1.60;;;5.60;99.90;;;;;;5048502;28;20460;-77
2023/03/15 00:26:20;;;;;;;6.87;2.20;;;5.70;99.90;;;;;;5048196;28;20424;-77
2023/03/15 00:28:46;;;;;;;7.20;2.50;;;5.80;99.90;;;;;;5049169;28;20430;-76
2023/03/15 00:31:20;;;;;;;8.43;2.90;;;5.80;99.90;;;;;;5049323;28;20427;-77
2023/03/15 00:33:47;;;;;;;7.20;2.90;;;5.80;99.90;;;;;;5048813;28;20211;-77
2023/03/15 00:36:12;;;;;;;6.93;2.83;;;5.80;99.90;;;;;;5047906;28;20486;-77
2023/03/15 00:38:39;;;;;;;7.43;2.70;;;5.50;99.90;;;;;;5049285;28;20420;-76
2023/03/15 00:41:07;;;;;;;8.97;3.53;;;5.90;99.90;;;;;;5047344;28;20189;-76
2023/03/15 00:43:33;;;;;;;5.93;3.37;;;5.90;99.90;;;;;;5048195;28;20497;-76
2023/03/15 00:45:59;;;;;;;6.73;3.73;;;5.90;99.90;;;;;;5048734;28;20779;-76
2023/03/15 00:48:25;;;;;;;6.70;4.00;;;5.60;99.90;;;;;;5048174;28;20421;-75
2023/03/15 00:50:50;;;;;;;8.10;4.23;;;5.80;99.90;;;;;;5048883;28;20409;-76
2023/03/15 00:53:16;;;;;;;7.87;4.10;;;5.80;99.90;;;;;;5048323;28;20193;-76
2023/03/15 00:55:42;;;;;;;7.17;4.13;;;5.70;99.90;;;;;;5048852;28;20178;-76
2023/03/15 00:58:07;;;;;;;8.77;4.03;;;5.90;99.90;;;;;;5048375;28;20218;-76
2023/03/15 01:00:33;;;;;;;9.70;4.30;;;5.90;99.90;;;;;;5047233;28;20181;-76
2023/03/15 01:02:59;;;;;;;6.73;4.13;;;5.70;99.90;;;;;;5048342;28;20201;-76
2023/03/15 01:05:25;;;;;;;5.50;3.60;;;5.50;99.90;;;;;;5048763;28;20420;-76
2023/03/15 01:07:51;;;;;;;6.43;4.00;;;5.80;99.90;;;;;;5047123;28;20185;-76
2023/03/15 01:10:18;;;;;;;10.67;4.80;;;5.70;99.90;;;;;;5048421;28;20469;-76
2023/03/15 01:12:44;;;;;;;6.97;3.63;;;5.70;99.90;;;;;;5046723;28;20482;-76
2023/03/15 01:15:12;;;;;;;5.30;3.73;;;5.60;99.90;;;;;;5048448;28;20416;-77
2023/03/15 01:17:39;;;;;;;7.23;3.90;;;5.60;99.90;;;;;;5046995;28;20537;-77
2023/03/15 01:20:05;;;;;;;5.10;4.10;;;5.60;99.90;;;;;;5048834;28;20416;-77
2023/03/15 01:22:31;;;;;;;6.53;4.63;;;5.70;99.90;;;;;;5054940;28;20464;-77
2023/03/15 01:24:57;;;;;;;5.83;4.90;;;5.40;99.90;;;;;;5054815;28;20877;-77
2023/03/15 01:27:22;;;;;;;8.10;5.73;;;5.40;99.90;;;;;;5054992;28;20174;-77
2023/03/15 01:29:48;;;;;;;7.80;5.60;;;5.40;99.90;;;;;;5053553;28;20185;-77
2023/03/15 01:32:14;;;;;;;9.00;6.50;;;5.40;99.90;;;;;;5054961;28;20181;-77
2023/03/15 01:34:39;;;;;;;6.63;5.93;;;5.50;99.90;;;;;;5054893;28;20578;-77
2023/03/15 01:37:05;;;;;;;6.80;5.60;;;5.50;99.90;;;;;;5036880;28;20651;-77
2023/03/15 01:39:31;;;;;;;7.40;5.60;;;5.40;99.90;;;;;;5054997;28;20498;-77
2023/03/15 01:41:57;;;;;;;6.13;5.53;;;5.40;99.90;;;;;;5053816;28;20422;-77
2023/03/15 01:44:23;;;;;;;5.73;5.13;;;5.50;99.90;;;;;;5036553;28;20202;-76
2023/03/15 01:46:49;;;;;;;5.43;4.93;;;5.40;99.90;;;;;;5054721;28;20186;-77
2023/03/15 01:49:16;;;;;;;4.60;4.17;;;5.50;99.90;;;;;;5054722;28;20553;-77
2023/03/15 01:51:43;;;;;;;4.60;3.67;;;5.50;99.90;;;;;;5054842;28;20411;-77
2023/03/15 01:54:45;;;;;;;4.33;3.90;;;5.40;99.90;;;;;;5054491;28;20442;-77
2023/03/15 01:57:29;;;;;;;7.07;4.20;;;5.20;99.90;;;;;;5048765;28;20561;-77
2023/03/15 02:00:02;;;;;;;4.40;4.00;;;5.20;99.90;;;;;;5054555;28;20423;-76
2023/03/15 02:02:28;;;;;;;5.00;4.27;;;5.20;99.90;;;;;;5054890;28;20436;-77
2023/03/15 02:05:03;;;;;;;5.07;3.90;;;5.20;99.90;;;;;;5054818;28;20408;-76
2023/03/15 02:07:33;;;;;;;5.03;4.53;;;5.30;99.90;;;;;;5054524;28;20184;-77
2023/03/15 02:10:12;;;;;;;5.20;3.87;;;5.10;99.90;;;;;;5054528;28;20427;-77
2023/03/15 02:12:42;;;;;;;4.93;4.17;;;4.90;99.90;;;;;;5054619;28;20462;-77
2023/03/15 02:15:08;;;;;;;4.27;3.87;;;4.90;99.90;;;;;;5054607;28;20789;-77
2023/03/15 02:17:40;;;;;;;4.90;4.20;;;5.20;99.90;;;;;;5054635;28;20987;-77
2023/03/15 02:20:08;;;;;;;5.97;5.33;;;5.10;99.90;;;;;;5054599;28;20878;-77
2023/03/15 02:22:59;;;;;;;5.10;4.70;;;5.20;99.90;;;;;;5054687;28;20424;-77
2023/03/15 02:25:57;;;;;;;4.60;3.90;;;5.00;99.90;;;;;;5054835;28;20412;-77
2023/03/15 02:28:23;;;;;;;4.47;4.07;;;5.10;99.90;;;;;;5054347;28;20408;-77
2023/03/15 02:30:50;;;;;;;5.30;4.50;;;4.80;99.90;;;;;;5054664;28;20734;-77
2023/03/15 02:33:24;;;;;;;5.00;3.87;;;4.90;99.90;;;;;;5050782;28;20552;-76
2023/03/15 02:35:50;;;;;;;5.80;4.20;;;4.90;99.90;;;;;;5051732;28;20486;-77
2023/03/15 02:38:16;;;;;;;4.33;3.87;;;5.00;99.90;;;;;;5051288;28;20502;-77
2023/03/15 02:40:43;;;;;;;4.83;4.20;;;4.90;99.90;;;;;;5051479;28;20423;-77
2023/03/15 02:43:22;;;;;;;4.47;3.90;;;5.10;99.90;;;;;;5050861;28;20436;-77
2023/03/15 02:45:48;;;;;;;5.40;3.70;;;4.90;99.90;;;;;;5051334;28;20431;-76
2023/03/15 02:48:16;;;;;;;4.30;3.90;;;4.90;99.90;;;;;;5049761;28;20416;-77
2023/03/15 02:50:41;;;;;;;4.50;4.10;;;5.00;99.90;;;;;;5051180;28;20446;-76
2023/03/15 02:53:08;;;;;;;6.70;3.73;;;5.00;99.90;;;;;;5050947;28;20452;-77
2023/03/15 02:55:34;;;;;;;5.87;4.00;;;5.10;99.90;;;;;;5051081;28;20598;-77
2023/03/15 02:58:00;;;;;;;6.83;5.40;;;4.70;99.90;;;;;;5049303;28;20471;-76
2023/03/15 03:00:27;;;;;;;5.60;4.60;;;5.10;99.90;;;;;;5049460;28;20493;-76
2023/03/15 03:02:53;;;;;;;5.97;4.50;;;5.20;99.90;;;;;;5050717;28;20515;-76
2023/03/15 03:05:19;;;;;;;7.70;5.50;;;5.00;99.90;;;;;;5050791;28;20760;-76
2023/03/15 03:07:45;;;;;;;6.30;5.37;;;4.90;99.90;;;;;;5050654;28;20439;-76
2023/03/15 03:10:15;;;;;;;5.83;5.23;;;5.00;99.90;;;;;;5050457;28;20544;-76
2023/03/15 03:12:41;;;;;;;8.73;6.37;;;5.00;99.90;;;;;;5050268;28;20510;-77
2023/03/15 03:15:08;;;;;;;8.43;6.43;;;5.00;99.90;;;;;;5049357;28;20409;-76
2023/03/15 03:17:36;;;;;;;8.17;6.93;;;5.00;99.90;;;;;;5050393;28;20470;-76
2023/03/15 03:20:10;;;;;;;8.20;7.10;;;4.90;99.90;;;;;;5050384;28;20419;-76
2023/03/15 03:22:36;;;;;;;8.83;7.80;;;5.00;99.90;;;;;;5050488;28;20439;-77
2023/03/15 03:25:03;;;;;;;11.03;7.90;;;5.10;99.90;;;;;;5050207;28;20772;-76
2023/03/15 03:27:29;;;;;;;12.17;8.70;;;4.90;99.90;;;;;;5050227;28;20431;-76
2023/03/15 03:29:55;;;;;;;11.30;8.40;;;4.90;99.90;;;;;;5048810;28;20465;-76
2023/03/15 03:32:21;;;;;;;9.80;8.20;;;4.90;99.90;;;;;;5050278;28;20428;-76
2023/03/15 03:34:50;;;;;;;11.37;7.47;;;4.90;99.90;;;;;;5049984;28;20185;-76
2023/03/15 03:37:20;;;;;;;7.90;6.20;;;4.90;99.90;;;;;;5048793;28;20468;-76
2023/03/15 03:39:46;;;;;;;7.57;6.30;;;5.10;99.90;;;;;;5048551;28;20435;-77
2023/03/15 03:42:13;;;;;;;7.43;6.67;;;5.10;99.90;;;;;;5050002;28;20506;-77
2023/03/15 03:44:39;;;;;;;10.20;7.57;;;4.90;99.90;;;;;;5049625;28;20420;-76
2023/03/15 03:47:05;;;;;;;7.57;6.77;;;5.10;99.90;;;;;;5050126;28;20504;-76
2023/03/15 03:49:30;;;;;;;9.50;7.57;;;5.00;99.90;;;;;;5048536;28;20496;-77
2023/03/15 03:51:56;;;;;;;8.87;7.27;;;4.90;99.90;;;;;;5049914;28;20491;-76
2023/03/15 03:54:22;;;;;;;7.47;6.67;;;4.90;99.90;;;;;;5049545;28;20210;-76
2023/03/15 03:56:48;;;;;;;6.57;5.83;;;5.00;99.90;;;;;;5048216;28;20267;-76
2023/03/15 03:59:14;;;;;;;6.27;5.37;;;4.90;99.90;;;;;;5048582;28;20174;-76
2023/03/15 04:01:41;;;;;;;7.67;5.47;;;5.10;99.90;;;;;;5049584;28;20420;-76
2023/03/15 04:04:07;;;;;;;6.10;5.13;;;5.10;99.90;;;;;;5049397;28;20470;-76
2023/03/15 04:06:33;;;;;;;4.07;3.63;;;4.90;99.90;;;;;;5049612;28;20423;-77
2023/03/15 04:09:01;;;;;;;3.70;3.30;;;4.90;99.90;;;;;;5048239;28;20417;-76
2023/03/15 04:11:27;;;;;;;4.40;2.90;;;5.00;99.90;;;;;;5048099;28;20825;-77
2023/03/15 04:13:53;;;;;;;3.93;3.37;;;5.00;99.90;;;;;;5047810;28;20973;-76
2023/03/15 04:16:19;;;;;;;3.97;3.40;;;5.20;99.90;;;;;;5049321;28;20451;-76
2023/03/15 04:18:45;;;;;;;5.10;4.07;;;4.90;99.90;;;;;;5031381;28;20204;-76
2023/03/15 04:21:12;;;;;;;4.97;3.87;;;4.90;99.90;;;;;;5049089;28;20444;-77
2023/03/15 04:23:38;;;;;;;4.90;4.40;;;5.10;99.90;;;;;;5048837;28;20444;-76
2023/03/15 04:26:05;;;;;;;7.70;5.03;;;5.10;99.90;;;;;;5049235;28;20458;-76
2023/03/15 04:28:31;;;;;;;5.33;4.80;;;5.10;99.90;;;;;;5049052;28;20413;-76
2023/03/15 04:30:57;;;;;;;6.00;4.50;;;4.90;99.90;;;;;;5049064;28;20446;-76
2023/03/15 04:33:24;;;;;;;6.67;5.37;;;4.90;99.90;;;;;;5049177;28;20506;-76
2023/03/15 04:35:53;;;;;;;7.30;5.80;;;4.80;99.90;;;;;;5047730;28;20424;-76
2023/03/15 04:38:25;;;;;;;9.07;7.27;;;5.00;99.90;;;;;;5068844;28;20888;-76
2023/03/15 04:40:53;;;;;;;8.20;6.00;;;5.00;99.90;;;;;;5068901;28;20828;-76
2023/03/15 04:43:19;;;;;;;7.40;5.80;;;4.90;99.90;;;;;;5067512;28;20427;-76
2023/03/15 04:45:45;;;;;;;9.63;6.93;;;4.80;99.90;;;;;;5067683;28;20462;-76
2023/03/15 04:48:11;;;;;;;6.03;5.27;;;4.80;99.90;;;;;;5067451;28;20427;-76
2023/03/15 04:50:36;;;;;;;11.50;7.97;;;5.00;99.90;;;;;;5068918;28;20423;-76
2023/03/15 04:53:02;;;;;;;10.50;6.47;;;5.10;99.90;;;;;;5068951;28;20201;-77
2023/03/15 04:55:28;;;;;;;8.83;6.97;;;5.10;99.90;;;;;;5067463;28;20188;-76
2023/03/15 04:57:54;;;;;;;8.70;6.30;;;5.00;99.90;;;;;;5069105;28;20254;-76
2023/03/15 05:00:20;;;;;;;6.93;5.47;;;4.80;99.90;;;;;;5068898;28;20218;-77
2023/03/15 05:02:53;;;;;;;8.17;6.40;;;5.10;99.90;;;;;;5067308;28;20435;-76
2023/03/15 05:05:19;;;;;;;9.70;6.63;;;5.00;99.90;;;;;;5068516;28;20426;-76
2023/03/15 05:07:45;;;;;;;8.43;6.93;;;5.00;99.90;;;;;;5068560;28;20416;-76
2023/03/15 05:10:11;;;;;;;9.00;7.87;;;4.90;99.90;;;;;;5068496;28;20842;-77
2023/03/15 05:12:37;;;;;;;11.50;8.50;;;5.10;99.90;;;;;;5053488;28;20228;-77
2023/03/15 05:15:02;;;;;;;13.17;9.30;;;4.90;99.90;;;;;;5048438;28;20426;-77
2023/03/15 05:17:28;;;;;;;14.30;10.07;;;5.00;99.90;;;;;;5048219;28;20544;-76
2023/03/15 05:19:54;;;;;;;12.83;9.47;;;4.80;99.90;;;;;;5048377;28;20469;-77
2023/03/15 05:22:24;;;;;;;12.43;9.93;;;4.80;99.90;;;;;;5048281;28;20236;-77
2023/03/15 05:24:50;;;;;;;11.80;10.60;;;4.90;99.90;;;;;;5047058;28;20595;-77
2023/03/15 05:27:16;;;;;;;12.43;10.13;;;4.90;99.90;;;;;;5048270;28;20512;-77
2023/03/15 05:29:41;;;;;;;12.60;9.40;;;4.80;99.90;;;;;;5047243;28;20519;-76
2023/03/15 05:32:07;;;;;;;9.70;8.70;;;4.80;99.90;;;;;;5048330;28;20251;-77
2023/03/15 05:34:33;;;;;;;11.27;8.33;;;4.80;99.90;;;;;;5048181;28;20603;-77
2023/03/15 05:36:59;;;;;;;12.57;7.90;;;4.80;99.90;;;;;;5056773;28;20820;-77
2023/03/15 05:39:25;;;;;;;9.93;6.93;;;4.80;99.90;;;;;;5068127;28;20181;-77
2023/03/15 05:41:50;;;;;;;9.00;7.47;;;4.90;99.90;;;;;;5053153;28;20433;-77
2023/03/15 05:44:16;;;;;;;7.80;7.00;;;5.00;99.90;;;;;;5046487;28;20224;-77
2023/03/15 05:46:42;;;;;;;8.40;6.90;;;4.70;99.90;;;;;;5048291;28;20189;-77
2023/03/15 05:49:08;;;;;;;10.30;8.00;;;4.80;99.90;;;;;;5047757;28;20515;-76
2023/03/15 05:51:34;;;;;;;8.03;7.23;;;4.80;99.90;;;;;;5047869;28;20194;-76
2023/03/15 05:54:00;;;;;;;11.63;7.47;;;4.80;99.90;;;;;;5045759;28;20448;-77
2023/03/15 05:56:26;;;;;;;10.13;8.37;;;4.80;99.90;;;;;;5047819;28;20517;-77
2023/03/15 05:58:51;;;;;;;9.23;8.20;;;4.70;99.90;;;;;;5046762;28;20423;-76
2023/03/15 06:01:17;;;;;;;9.00;7.93;;;4.60;99.90;;;;;;5047889;28;20658;-77
2023/03/15 06:03:43;;;;;;;10.80;8.20;;;4.90;99.90;;;;;;5047798;28;20213;-76
2023/03/15 06:06:08;;;;;;;10.80;8.17;;;4.90;99.90;;;;;;5046757;28;20615;-76
2023/03/15 06:08:34;;;;;;;10.63;9.53;;;4.70;99.90;;;;;;5050036;28;20190;-76
2023/03/15 06:11:00;;;;;;;12.47;8.80;;;4.80;99.90;;;;;;5050949;28;20247;-76
2023/03/15 06:13:25;;;;;;;11.47;8.83;;;4.70;99.90;;;;;;5049874;28;20218;-77
2023/03/15 06:15:52;;;;;;;12.27;9.47;;;4.60;99.90;;;;;;5052087;28;20202;-76
2023/03/15 06:18:18;;;;;;;11.93;8.60;;;4.70;99.90;;;;;;5051391;28;20513;-76
2023/03/15 06:20:43;;;;;;;10.93;8.90;;;4.90;99.90;;;;;;5051557;28;20545;-76
2023/03/15 06:23:09;;;;;;;13.10;10.00;;;4.60;99.90;;;;;;5051075;28;20193;-77
2023/03/15 06:25:35;;;;;;;14.03;10.83;;;4.70;99.90;;;;;;5050455;28;20209;-77
2023/03/15 06:28:01;;;;;;;16.70;12.60;;;4.70;99.90;;;;;;5051122;28;20181;-76
2023/03/15 06:30:27;;;;;;;12.70;10.37;;;4.90;99.90;;;;;;5050165;28;20423;-76
2023/03/15 06:32:53;;;;;;;15.77;10.70;;;4.70;99.90;;;;;;5051473;28;20670;-76
2023/03/15 06:35:19;;;;;;;16.40;11.80;;;4.90;99.90;;;;;;5045365;28;20425;-77
2023/03/15 06:37:46;;;;;;;16.57;11.77;;;4.80;99.90;;;;;;5049920;28;20532;-76
2023/03/15 06:40:12;;;;;;;15.67;11.67;;;4.60;99.90;;;;;;5045399;28;20432;-76
2023/03/15 06:42:40;;;;;;;18.00;12.60;;;4.60;99.90;;;;;;5051396;28;20433;-77
2023/03/15 06:45:07;;;;;;;17.73;12.50;;;4.60;99.90;;;;;;5051762;28;20473;-76
2023/03/15 06:47:33;;;;;;;20.60;12.90;;;4.90;99.90;;;;;;5049816;28;20423;-75
2023/03/15 06:49:59;;;;;;;19.47;13.40;;;4.80;99.90;;;;;;5050382;28;20969;-76
2023/03/15 06:52:24;;;;;;;18.10;13.40;;;4.70;99.90;;;;;;5050002;28;20485;-75
2023/03/15 06:54:50;;;;;;;18.60;14.07;;;4.70;99.90;;;;;;5051439;28;20666;-77
2023/03/15 06:57:16;;;;;;;18.40;13.37;;;4.80;99.90;;;;;;5050103;28;20201;-76
2023/03/15 06:59:41;;;;;;;18.53;13.30;;;4.80;99.90;;;;;;5042807;28;20644;-76
2023/03/15 07:02:15;;;;;;;18.83;13.80;;;4.80;99.90;;;;;;5031333;28;20183;-76
2023/03/15 07:04:40;;;;;;;17.83;13.40;;;4.80;99.90;;;;;;5013507;28;20183;-76
2023/03/15 07:07:06;;;;;;;18.80;13.17;;;5.00;99.90;;;;;;5031117;28;20778;-76
2023/03/15 07:09:32;;;;;;;21.37;13.20;;;4.80;99.90;;;;;;5031330;28;20182;-76
2023/03/15 07:11:57;;;;;;;21.90;14.73;;;4.90;99.90;;;;;;5044038;28;20189;-76
2023/03/15 07:14:23;;;;;;;20.57;15.10;;;4.90;99.90;;;;;;5048516;28;20214;-76
2023/03/15 07:16:49;;;;;;;20.13;14.20;;;4.80;99.90;;;;;;5050568;28;20213;-76
2023/03/15 07:19:14;;;;;;;17.97;13.57;;;5.00;99.90;;;;;;5047905;28;20169;-77
2023/03/15 07:21:40;;;;;;;20.30;14.03;;;4.80;99.90;;;;;;5028865;28;20660;-76
2023/03/15 07:24:06;;;;;;;19.87;14.20;;;4.90;99.90;;;;;;5046730;28;20205;-77
2023/03/15 07:26:31;;;;;;;20.87;15.40;;;5.10;99.90;;;;;;5047614;28;20828;-76
2023/03/15 07:28:57;;;;;;;21.10;14.10;;;5.00;99.90;;;;;;5049752;28;20190;-76
2023/03/15 07:31:23;;;;;;;26.90;14.37;;;5.00;99.90;;;;;;5028990;28;20183;-76
2023/03/15 07:33:48;;;;;;;18.70;13.23;;;5.10;99.90;;;;;;5030554;28;20394;-76
2023/03/15 07:36:14;;;;;;;19.20;14.53;;;4.90;99.90;;;;;;5036545;28;20193;-76
2023/03/15 07:38:40;;;;;;;22.60;15.83;;;5.00;99.90;;;;;;5069192;28;20181;-76
2023/03/15 07:41:06;;;;;;;21.80;14.63;;;5.00;99.90;;;;;;5070386;28;20235;-76
2023/03/15 07:43:32;;;;;;;20.20;13.80;;;5.20;99.90;;;;;;5070204;28;20467;-76
2023/03/15 07:45:58;;;;;;;17.90;12.67;;;5.20;99.90;;;;;;5042636;28;20417;-76
2023/03/15 07:48:24;;;;;;;19.80;13.20;;;5.00;99.90;;;;;;5042234;28;20429;-76
2023/03/15 07:50:49;;;;;;;17.60;12.80;;;5.20;99.90;;;;;;5030233;28;20258;-76
2023/03/15 07:53:15;;;;;;;14.40;11.17;;;5.10;99.90;;;;;;5028752;28;20289;-76
2023/03/15 07:55:41;;;;;;;18.60;13.00;;;4.90;99.90;;;;;;5038819;28;20280;-76
2023/03/15 07:58:06;;;;;;;15.60;12.33;;;5.20;99.90;;;;;;5049813;28;20213;-76
2023/03/15 08:00:32;;;;;;;17.10;11.77;;;5.30;99.90;;;;;;5049932;28;20189;-76
2023/03/15 08:02:58;;;;;;;14.60;11.83;;;5.30;99.90;;;;;;5027188;28;20200;-76
2023/03/15 08:05:24;;;;;;;18.60;13.83;;;5.50;99.90;;;;;;5038226;28;20186;-76
2023/03/15 08:07:50;;;;;;;17.53;13.27;;;5.40;99.90;;;;;;5036650;28;20860;-76
2023/03/15 08:10:17;;;;;;;17.80;13.00;;;5.30;99.90;;;;;;5041065;28;20509;-76
2023/03/15 08:12:43;;;;;;;16.20;12.50;;;5.40;99.90;;;;;;5047787;28;20459;-76
2023/03/15 08:15:13;;;;;;;15.70;11.90;;;5.50;99.90;;;;;;5049008;28;20503;-77
2023/03/15 08:17:41;;;;;;;14.50;11.40;;;5.40;99.90;;;;;;5050331;28;20241;-76
2023/03/15 08:20:13;;;;;;;15.67;11.20;;;5.50;99.90;;;;;;5048849;28;20419;-76
2023/03/15 08:22:38;;;;;;;12.23;9.70;;;5.50;99.90;;;;;;5050552;28;20440;-76
2023/03/15 08:25:05;;;;;;;20.10;10.93;;;5.50;99.90;;;;;;5049658;28;20463;-76
2023/03/15 08:27:30;;;;;;;12.63;10.27;;;5.70;99.90;;;;;;5049122;28;20186;-76
2023/03/15 08:29:56;;;;;;;11.30;10.10;;;5.70;99.90;;;;;;5049473;28;20485;-76
2023/03/15 08:32:22;;;;;;;11.83;9.73;;;5.50;99.90;;;;;;5050016;28;20189;-76
2023/03/15 08:34:47;;;;;;;13.40;10.40;;;5.90;99.90;;;;;;5049429;28;20208;-76
2023/03/15 08:37:13;;;;;;;11.53;9.20;;;6.00;99.90;;;;;;5049320;28;20262;-76
2023/03/15 08:39:39;;;;;;;21.10;9.57;;;5.80;99.90;;;;;;5048090;28;20264;-76
2023/03/15 08:42:05;;;;;;;13.53;10.03;;;5.90;99.90;;;;;;5031654;28;20623;-76
2023/03/15 08:44:31;;;;;;;14.37;10.10;;;6.20;99.90;;;;;;5047612;28;20250;-77
2023/03/15 08:46:57;;;;;;;12.70;9.80;;;6.20;99.90;;;;;;5046989;28;20459;-76
2023/03/15 08:49:22;;;;;;;11.40;9.70;;;6.30;99.90;;;;;;5047525;28;20852;-76
2023/03/15 08:51:48;;;;;;;10.30;9.20;;;6.30;99.90;;;;;;5049355;28;20690;-76
2023/03/15 08:54:14;;;;;;;11.93;10.50;;;6.20;99.90;;;;;;5047553;28;20284;-76
2023/03/15 08:56:41;;;;;;;10.10;8.73;;;6.20;99.90;;;;;;5049015;28;20589;-76
2023/03/15 08:59:07;;;;;;;11.67;9.03;;;6.30;99.90;;;;;;5047627;28;20256;-76
2023/03/15 09:01:33;;;;;;;12.07;10.00;;;6.40;99.90;;;;;;5048867;28;20416;-77
2023/03/15 09:04:00;;;;;;;10.30;7.67;;;6.50;99.90;;;;;;5047769;28;20944;-77
2023/03/15 09:06:26;;;;;;;8.97;8.07;;;6.60;99.90;;;;;;5048991;28;20201;-76
2023/03/15 09:08:52;;;;;;;9.97;8.57;;;6.60;99.90;;;;;;5048789;28;20917;-76
2023/03/15 09:11:19;;;;;;;12.73;8.50;;;6.70;99.90;;;;;;5047454;28;20962;-76
2023/03/15 09:13:44;;;;;;;10.57;8.77;;;6.70;99.90;;;;;;5047275;28;20456;-76
2023/03/15 09:16:10;;;;;;;12.67;9.67;;;6.80;99.90;;;;;;5030963;28;20863;-76
2023/03/15 09:18:36;;;;;;;10.50;8.50;;;6.90;99.90;;;;;;5048528;28;20213;-77
2023/03/15 09:21:01;;;;;;;8.80;7.80;;;7.00;99.90;;;;;;5048586;28;20634;-76
2023/03/15 09:23:27;;;;;;;10.20;6.77;;;7.00;99.90;;;;;;5048634;28;20194;-76
2023/03/15 09:25:53;;;;;;;10.47;6.77;;;7.10;99.90;;;;;;5048821;28;20267;-77
2023/03/15 09:28:18;;;;;;;8.87;6.53;;;7.20;99.90;;;;;;5047816;28;20268;-76
2023/03/15 09:30:44;;;;;;;7.57;6.77;;;7.20;99.90;;;;;;5048438;28;20186;-77
2023/03/15 09:33:13;;;;;;;8.47;6.60;;;7.20;99.90;;;;;;5048869;28;20201;-76
2023/03/15 09:35:39;;;;;;;9.43;6.17;;;7.20;99.90;;;;;;5048701;28;20185;-76
2023/03/15 09:38:05;;;;;;;8.23;5.63;;;7.30;99.90;;;;;;5048685;28;20946;-76
2023/03/15 09:40:33;;;;;;;8.93;5.40;;;7.40;99.90;;;;;;5048513;28;20423;-77
2023/03/15 09:43:04;;;;;;;7.80;6.07;;;7.60;99.90;;;;;;5051699;28;20247;-77
2023/03/15 09:46:04;;;;;;;12.20;5.80;;;7.60;99.90;;;;;;5051317;28;20408;-77
2023/03/15 09:48:36;;;;;;;10.17;5.77;;;7.60;99.90;;;;;;5052493;28;20415;-76
2023/03/15 09:51:23;;;;;;;7.20;5.83;;;7.50;99.90;;;;;;5052228;28;20420;-77
2023/03/15 09:54:01;;;;;;;6.03;5.07;;;7.50;99.90;;;;;;5052129;28;20437;-77
2023/03/15 09:56:35;;;;;;;8.27;4.90;;;7.50;99.90;;;;;;5052338;28;20412;-76
2023/03/15 09:59:02;;;;;;;7.70;6.17;;;7.50;99.90;;;;;;5052344;28;20917;-77
2023/03/15 10:01:35;;;;;;;9.30;5.63;;;7.50;99.90;;;;;;5052186;28;20769;-77
2023/03/15 10:04:07;;;;;;;7.20;5.13;;;7.50;99.90;;;;;;5051014;28;20432;-76
2023/03/15 10:06:34;;;;;;;7.47;5.20;;;7.40;99.90;;;;;;5050973;28;20455;-77
2023/03/15 10:09:05;;;;;;;9.17;5.83;;;7.30;99.90;;;;;;5050639;28;20416;-77
2023/03/15 10:11:46;;;;;;;8.07;5.23;;;7.30;99.90;;;;;;5051946;28;20462;-76
2023/03/15 10:14:21;;;;;;;8.30;5.53;;;7.40;99.90;;;;;;5051811;28;20452;-76
2023/03/15 10:16:49;;;;;;;10.03;6.80;;;7.60;99.90;;;;;;5050389;28;20455;-76
2023/03/15 10:19:30;;;;;;;7.93;6.30;;;7.70;99.90;;;;;;5050696;28;20418;-77
2023/03/15 10:22:30;;;;;;;10.70;6.60;;;7.80;99.90;;;;;;5050624;28;20412;-77
2023/03/15 10:25:29;;;;;;;8.80;6.40;;;7.90;99.90;;;;;;5051731;28;20419;-77
2023/03/15 10:28:07;;;;;;;10.67;7.90;;;8.20;99.90;;;;;;5039500;28;20424;-76
2023/03/15 10:30:35;;;;;;;9.53;5.90;;;8.40;99.90;;;;;;5051630;28;20675;-77
2023/03/15 10:33:12;;;;;;;9.93;6.10;;;8.50;99.90;;;;;;5051724;28;20428;-77
2023/03/15 10:35:37;;;;;;;15.23;5.87;;;8.70;99.90;;;;;;5050542;28;20408;-76
2023/03/15 10:38:17;;;;;;;8.30;5.37;;;8.90;99.90;;;;;;5050377;28;20482;-77
2023/03/15 10:40:44;;;;;;;8.53;5.03;;;9.00;99.90;;;;;;5050420;28;20173;-77
2023/03/15 10:43:36;;;;;;;9.83;4.47;;;9.10;99.90;;;;;;5052043;28;20443;-75
2023/03/15 10:46:05;;;;;;;5.53;4.40;;;9.20;99.90;;;;;;5050444;28;20435;-77
2023/03/15 10:48:40;;;;;;;6.10;4.47;;;9.40;99.90;;;;;;5050414;28;20420;-77
2023/03/15 10:51:19;;;;;;;12.07;5.80;;;9.40;99.90;;;;;;5050451;28;20416;-77
2023/03/15 10:54:19;;;;;;;8.40;5.17;;;9.60;99.90;;;;;;5051935;28;20443;-77
2023/03/15 10:57:06;;;;;;;7.90;5.50;;;9.50;99.90;;;;;;5051854;28;20543;-76
2023/03/15 10:59:35;;;;;;;8.93;5.73;;;9.50;99.90;;;;;;5051331;28;20442;-77
2023/03/15 11:02:13;;;;;;;8.03;5.23;;;9.40;99.90;;;;;;5051273;28;20499;-76
2023/03/15 11:04:46;;;;;;;9.07;5.30;;;9.40;99.90;;;;;;5050542;28;20477;-76
2023/03/15 11:07:12;;;;;;;7.07;5.70;;;9.40;99.90;;;;;;5051377;28;20467;-77
2023/03/15 11:09:52;;;;;;;8.57;4.83;;;9.50;99.90;;;;;;5049850;28;20424;-77
2023/03/15 11:12:26;;;;;;;8.00;4.83;;;9.50;99.90;;;;;;5050647;28;20448;-77
2023/03/15 11:14:58;;;;;;;6.07;4.00;;;9.60;99.90;;;;;;5049819;28;20412;-77
2023/03/15 11:17:31;;;;;;;5.23;3.83;;;9.50;99.90;;;;;;5050587;28;20463;-77
2023/03/15 11:20:17;;;;;;;8.77;3.17;;;9.40;99.90;;;;;;5051020;28;20416;-77
2023/03/15 11:22:43;;;;;;;5.10;2.73;;;9.40;99.40;;;;;;5050489;28;20446;-76
2023/03/15 11:25:13;;;;;;;5.77;2.70;;;9.30;99.40;;;;;;5050782;28;20404;-76
2023/03/15 11:27:42;;;;;;;5.83;3.30;;;9.30;98.10;;;;;;5050639;28;20285;-76
2023/03/15 11:30:15;;;;;;;4.90;3.03;;;9.30;98.70;;;;;;5050566;28;20432;-77
2023/03/15 11:32:43;;;;;;;6.20;2.53;;;9.30;99.60;;;;;;5050516;28;20831;-76
2023/03/15 11:35:40;;;;;;;7.13;4.27;;;9.20;98.60;;;;;;5050525;28;20905;-77
2023/03/15 11:38:17;;;;;;;7.00;3.93;;;9.20;99.00;;;;;;5050146;28;20460;-77
2023/03/15 11:40:47;;;;;;;4.50;3.30;;;9.20;99.50;;;;;;5050560;28;20427;-77
2023/03/15 11:43:18;;;;;;;5.40;2.93;;;9.10;99.80;;;;;;5050389;28;20433;-77
2023/03/15 11:45:50;;;;;;;6.27;2.73;;;9.00;99.90;;;;;;5050513;28;20421;-76
2023/03/15 11:48:22;;;;;;;6.17;3.90;;;9.00;99.90;;;;;;5032352;28;20427;-76
2023/03/15 11:50:51;;;;;;;11.33;4.90;;;8.90;99.70;;;;;;5050306;28;20458;-76
2023/03/15 11:53:17;;;;;;;7.50;4.93;;;8.80;99.90;;;;;;5050140;28;20906;-77
2023/03/15 11:55:48;;;;;;;6.43;4.20;;;8.70;99.90;;;;;;5032514;28;20762;-77
2023/03/15 11:58:43;;;;;;;7.23;5.10;;;8.60;99.90;;;;;;5048552;28;20458;-77
2023/03/15 12:01:22;;;;;;;10.17;5.40;;;8.60;99.90;;;;;;5045158;28;20428;-77
2023/03/15 12:03:48;;;;;;;8.23;4.80;;;8.70;99.90;;;;;;5048966;28;20440;-76
2023/03/15 12:06:17;;;;;;;8.43;4.40;;;8.90;99.90;;;;;;5050038;28;20773;-77
2023/03/15 12:08:47;;;;;;;6.60;4.23;;;9.10;99.90;;;;;;5049841;28;20673;-76
2023/03/15 12:11:32;;;;;;;9.43;5.13;;;9.20;99.90;;;;;;5049564;28;20478;-76
2023/03/15 12:13:58;;;;;;;10.80;5.00;;;9.30;99.90;;;;;;5048209;28;20860;-76
2023/03/15 12:16:36;;;;;;;6.10;4.27;;;9.40;99.90;;;;;;5048534;28;20408;-77
2023/03/15 12:19:09;;;;;;;7.63;4.23;;;9.40;99.90;;;;;;5049656;28;20259;-77
2023/03/15 12:21:45;;;;;;;5.07;2.80;;;9.40;99.90;;;;;;5049673;28;20416;-76
2023/03/15 12:24:29;;;;;;;6.43;3.03;;;9.50;99.90;;;;;;5049508;28;20498;-77
2023/03/15 12:26:58;;;;;;;5.13;3.23;;;9.60;99.90;;;;;;5049814;28;20416;-76
2023/03/15 12:29:29;;;;;;;5.00;2.80;;;9.80;99.90;;;;;;5048566;28;20416;-77
2023/03/15 12:32:01;;;;;;;3.30;2.20;;;9.90;99.90;;;;;;5031577;28;20784;-76
2023/03/15 12:34:36;;;;;;;2.50;1.73;;;10.00;98.10;;;;;;5048269;28;20428;-77
2023/03/15 12:37:07;;;;;;;6.50;2.10;;;10.00;98.10;;;;;;5049037;28;20945;-77
2023/03/15 12:39:37;;;;;;;4.20;2.37;;;10.10;99.00;;;;;;5049694;28;20405;-76
2023/03/15 12:42:04;;;;;;;3.60;2.50;;;10.10;96.00;;;;;;5048627;28;20435;-77
2023/03/15 12:44:32;;;;;;;6.23;2.50;;;10.00;96.20;;;;;;5047395;28;20431;-76
2023/03/15 12:46:57;;;;;;;4.47;2.70;;;10.00;96.10;;;;;;5048775;28;20951;-76
2023/03/15 12:49:23;;;;;;;4.93;2.53;;;9.90;95.70;;;;;;5031337;28;20452;-76
2023/03/15 12:52:01;;;;;;;6.10;2.60;;;10.00;96.20;;;;;;5047554;28;20182;-76
2023/03/15 12:54:41;;;;;;;11.10;3.00;;;10.10;95.60;;;;;;5048501;28;20212;-76
2023/03/15 12:57:10;;;;;;;3.90;2.60;;;10.10;95.40;;;;;;5048575;28;20467;-76
2023/03/15 12:59:45;;;;;;;3.30;2.20;;;10.20;96.40;;;;;;5048635;28;20971;-76